Airfield :
LOGIN :

Register | Disclaimer

   EN    FR    IT 

 










Legend :    VFR   Marginal VFR   IFR   Intensive IFR   Very Intensive IFR
Visi :
Ceiling :
>= 8 km
>= 3000ft
5 to 8 km
1000 to 3000 ft
1500m to 5 km
500 to 1000 ft
800 to 1500m
200 to 500 ft
< 800m
< 200 ft
Symbols :   Thunderstorms  Fog  Heavy snow  Heavy precipitations  Wind > 20 kt
SIGMETs :     Misc.  Thunderstorms  Icing  Turbulence  Mountain Waves  Volcanic Ashes






- Airport Elevation : 184 ft
- IATA code : BRU


EBBR - Bruxelles

CURRENT METAR :
  • 221550Z 28002KT 9999 FEW032 14/10 Q1024 NOSIG

EXPIRED METARs :
  • 221520Z VRB02KT 9999 FEW030 14/09 Q1023 NOSIG
  • 221450Z 28005KT 9999 FEW030 15/09 Q1024 NOSIG
  • 221420Z 25005KT 230V290 9999 FEW030 14/09 Q1024 NOSIG
  • 221350Z 24005KT 200V280 9999 FEW030 14/10 Q1024 NOSIG
  • 221320Z 20005KT 160V220 9999 FEW025 SCT034 15/09 Q1024 NOSIG

TAF TAF EBBR
Valid from the 22 at 12:00 until the 23 at 18:00 UTC


221110Z 2212/2318 25004KT 9999 SCT015 SCT030
PROB30
TEMPO 2223/2303 4000 BR
BECMG 2305/2307 06010KT
BECMG 2315/2317 13005KT



MET'MAP, your aeronautical weather chart ! - Copyright ORBIFLY December 2007 - Disclaimer

ORBIFLY MET'MAP TEAM :

Programming & Development : Alexandra Zaïnal
Concept & Development : Baudouin d'Aumeries
Co-Development & Prog : Marc-Olivier Méhu
Technical & hardware support : Manuel Goepfert

Contact : metmap@orbifly.com




SOURCES & CREDITS :

   NOAA